Jard de Adjuntas, Puerto Rico
Current Conditions -  °F | °C
As of 4:50 PM on Monday 20 Oct 2014 (Local Time) from TJBQ Reporting Station
Broken Clouds Broken Clouds  
Wind Chill: 29°   Ceiling: 2800
Heat Index: 34°   Visibility: 10mi
Dew Point: 24°   Wind: 12mph
Humidity: 74%   Direction: 70°ENE
Pressure: 29.93"   Gusts: NA
Location:  18.1642°N, 66.7227°W
Report Text: TJBQ 202050Z 07010KT 10SM SCT022 BKN028 BKN033 29/24 A2993 RMK LTG VC AND DSNT SE-SW ---RWY08 ATIS N
Loading
Personal Weather Stations






























Interactive Weather Map
Tropical Storm Tracking
New forecast layout! Learn more

10-Day Weather Forecast

Advertisements
Track Severe Weather on mobile